Time;durP1;ratioP1;P1;durP2;ratioP2;P2;SDS_P1;SDS_P2;PMS_P1;PMS_P2;Temp;Humidity;BMP_temperature;BMP_pressure;BME280_temperature;BME280_humidity;BME280_pressure;Samples;Min_cycle;Max_cycle;Signal;HPM_P1;HPM_P2
2021/06/20 00:00:34;;;;;;;3.97;2.28;;;;;;;18.97;50.69;99477.63;5038336;28;20053;-76
2021/06/20 00:03:00;;;;;;;4.33;2.37;;;;;;;18.99;50.77;99470.16;5054815;28;20044;-76
2021/06/20 00:05:29;;;;;;;5.15;2.20;;;;;;;18.99;50.70;99480.97;5037820;28;20080;-77
2021/06/20 00:07:56;;;;;;;2.35;1.90;;;;;;;18.98;50.94;99479.31;5039988;28;20051;-76
2021/06/20 00:10:24;;;;;;;4.00;1.90;;;;;;;18.88;51.45;99489.47;5058956;28;20052;-77
2021/06/20 00:12:50;;;;;;;2.47;2.25;;;;;;;18.84;51.64;99482.72;5041995;28;20047;-76
2021/06/20 00:15:17;;;;;;;4.50;2.15;;;;;;;18.84;51.73;99482.72;5059390;28;20053;-76
2021/06/20 00:17:43;;;;;;;3.00;2.20;;;;;;;18.83;51.74;99481.03;5041917;28;20055;-76
2021/06/20 00:20:10;;;;;;;5.75;2.20;;;;;;;18.84;51.88;99493.53;5059033;28;20040;-76
2021/06/20 00:22:35;;;;;;;4.03;1.90;;;;;;;18.82;52.06;99495.59;5042424;28;20056;-75
2021/06/20 00:25:03;;;;;;;7.55;1.92;;;;;;;18.86;52.01;99494.22;5041977;28;20040;-77
2021/06/20 00:27:29;;;;;;;5.20;2.67;;;;;;;18.89;51.74;99493.91;5076321;28;20058;-76
2021/06/20 00:30:08;;;;;;;3.15;1.92;;;;;;;18.90;52.10;99498.28;5060232;28;20101;-77
2021/06/20 00:32:34;;;;;;;6.63;2.40;;;;;;;18.82;52.30;99501.00;5077715;28;20037;-76
2021/06/20 00:35:00;;;;;;;6.55;1.95;;;;;;;18.73;52.50;99478.53;5076987;28;20098;-76
2021/06/20 00:37:26;;;;;;;3.03;2.40;;;;;;;18.85;52.49;99493.41;5058792;28;20048;-77
2021/06/20 00:39:52;;;;;;;5.63;2.15;;;;;;;18.84;52.59;99510.66;5042463;28;20050;-78
2021/06/20 00:42:17;;;;;;;2.70;2.15;;;;;;;18.88;52.24;99500.31;5042536;28;20125;-77
2021/06/20 00:44:44;;;;;;;4.18;1.95;;;;;;;18.87;52.48;99494.06;5042179;28;20063;-75
2021/06/20 00:47:10;;;;;;;12.27;2.53;;;;;;;18.94;52.49;99507.75;5027125;28;20049;-76
2021/06/20 00:49:36;;;;;;;6.53;2.30;;;;;;;18.91;52.94;99511.66;5026935;28;20075;-75
2021/06/20 00:52:02;;;;;;;8.32;2.20;;;;;;;18.98;52.62;99506.38;5025735;28;20566;-75
2021/06/20 00:54:28;;;;;;;3.25;2.30;;;;;;;18.96;52.69;99491.34;5059249;28;20044;-75
2021/06/20 00:56:54;;;;;;;3.45;2.60;;;;;;;19.01;52.64;99500.63;5046125;28;20052;-74
2021/06/20 00:59:20;;;;;;;4.05;2.42;;;;;;;19.04;52.61;99492.16;5067188;28;20044;-76
2021/06/20 01:01:46;;;;;;;5.72;1.92;;;;;;;19.13;52.88;99506.53;5071807;28;20040;-75
2021/06/20 01:04:12;;;;;;;7.57;2.47;;;;;;;19.22;52.64;99485.66;5070205;28;20064;-75
2021/06/20 01:06:38;;;;;;;4.05;2.40;;;;;;;19.19;52.64;99502.28;5066504;28;20517;-76
2021/06/20 01:09:04;;;;;;;6.97;2.30;;;;;;;19.12;52.90;99485.88;5051955;28;20052;-76
2021/06/20 01:11:30;;;;;;;5.10;2.17;;;;;;;19.19;52.91;99486.03;5061439;28;20040;-76
2021/06/20 01:13:56;;;;;;;12.50;2.97;;;;;;;19.27;53.09;99500.38;5057562;28;20032;-76
2021/06/20 01:16:25;;;;;;;3.92;2.10;;;;;;;19.33;52.83;99493.41;5044226;28;20052;-77
2021/06/20 01:18:51;;;;;;;4.07;2.28;;;;;;;19.39;52.89;99506.28;5023126;28;20044;-76
2021/06/20 01:21:17;;;;;;;6.00;2.00;;;;;;;19.38;52.79;99496.47;5041458;28;20047;-77
2021/06/20 01:23:43;;;;;;;11.75;2.50;;;;;;;19.36;52.94;99493.06;5057264;28;20135;-78
2021/06/20 01:26:09;;;;;;;7.57;2.50;;;;;;;19.49;52.89;99497.94;5024881;28;20043;-77
2021/06/20 01:28:50;;;;;;;5.85;2.13;;;;;;;19.53;52.62;99481.13;5074469;28;20040;-78
2021/06/20 01:31:17;;;;;;;4.18;2.42;;;;;;;19.52;52.69;99487.59;5074353;28;20048;-76
2021/06/20 01:33:43;;;;;;;8.88;2.50;;;;;;;19.65;52.74;99509.56;5024407;28;20047;-77
2021/06/20 01:36:10;;;;;;;6.93;2.45;;;;;;;19.65;52.61;99470.75;5040231;28;20079;-76
2021/06/20 01:38:36;;;;;;;3.65;2.33;;;;;;;19.79;52.55;99488.16;5040882;28;20071;-76
2021/06/20 01:41:02;;;;;;;8.80;2.75;;;;;;;19.79;52.75;99494.41;5074873;28;20467;-77
2021/06/20 01:43:28;;;;;;;8.63;2.65;;;;;;;19.76;53.04;99488.50;5073943;28;20056;-76
2021/06/20 01:45:54;;;;;;;6.20;2.33;;;;;;;19.84;52.65;99474.88;5073513;28;20569;-77
2021/06/20 01:48:19;;;;;;;3.83;2.08;;;;;;;19.89;52.84;99486.03;5040301;28;20067;-76
2021/06/20 01:50:45;;;;;;;4.28;2.30;;;;;;;19.89;52.86;99477.91;5040235;28;20090;-75
2021/06/20 01:53:13;;;;;;;7.28;2.30;;;;;;;19.97;52.88;99477.00;5040564;28;20036;-77
2021/06/20 01:55:40;;;;;;;5.72;2.30;;;;;;;19.94;53.06;99480.94;5008179;28;20040;-77
2021/06/20 01:58:06;;;;;;;2.85;2.10;;;;;;;20.04;53.21;99492.38;5056971;28;20110;-76
2021/06/20 02:00:34;;;;;;;9.32;2.60;;;;;;;20.16;52.89;99497.38;5040470;28;20051;-77
2021/06/20 02:03:14;;;;;;;4.28;2.22;;;;;;;20.31;52.86;99501.88;5056602;28;20048;-76
2021/06/20 02:05:42;;;;;;;6.95;2.60;;;;;;;20.35;52.77;99499.66;5023992;28;20056;-78
2021/06/20 02:08:08;;;;;;;7.15;2.70;;;;;;;20.52;52.57;99501.22;5040176;28;20062;-78
2021/06/20 02:10:33;;;;;;;9.13;2.78;;;;;;;20.70;52.36;99494.63;5040126;28;20048;-77
2021/06/20 02:12:59;;;;;;;4.20;2.28;;;;;;;20.65;52.48;99475.28;5056571;28;20044;-78
2021/06/20 02:15:25;;;;;;;8.18;2.20;;;;;;;20.82;52.02;99502.13;5056304;28;20087;-76
2021/06/20 02:17:51;;;;;;;5.25;2.22;;;;;;;20.99;51.95;99491.94;5039911;28;20094;-76
2021/06/20 02:20:18;;;;;;;4.72;2.60;;;;;;;21.05;51.77;99501.22;5039797;28;20048;-77
2021/06/20 02:22:50;;;;;;;8.82;2.85;;;;;;;21.01;51.76;99505.34;5022984;28;20048;-77
2021/06/20 02:25:16;;;;;;;3.97;2.60;;;;;;;21.03;52.22;99501.41;5024250;28;20053;-77
2021/06/20 02:27:43;;;;;;;2.00;1.90;;;;;;;21.13;52.30;99501.13;5072674;28;20047;-77
2021/06/20 02:30:09;;;;;;;7.43;2.55;;;;;;;21.24;52.23;99497.09;5039098;28;20096;-77
2021/06/20 02:32:35;;;;;;;8.80;2.72;;;;;;;21.36;51.77;99498.31;5039788;28;20059;-77
2021/06/20 02:35:01;;;;;;;3.33;2.47;;;;;;;21.38;51.91;99501.72;5022824;28;20555;-77
2021/06/20 02:37:31;;;;;;;8.55;2.90;;;;;;;21.46;52.19;99501.59;5070358;28;20048;-76
2021/06/20 02:39:57;;;;;;;4.47;2.58;;;;;;;21.70;51.64;99505.91;5023595;28;20087;-79
2021/06/20 02:42:23;;;;;;;6.57;2.70;;;;;;;21.84;51.47;99501.44;5023915;28;20356;-79
2021/06/20 02:44:49;;;;;;;5.25;2.70;;;;;;;22.06;51.24;99511.34;5007466;28;20127;-79
2021/06/20 02:47:15;;;;;;;8.43;2.92;;;;;;;22.25;51.07;99504.44;5055905;28;20045;-79
2021/06/20 02:49:41;;;;;;;6.35;2.72;;;;;;;22.36;50.85;99497.63;5006488;28;20129;-77
2021/06/20 02:52:08;;;;;;;10.60;2.97;;;;;;;22.63;50.91;99504.16;5056351;28;20036;-78
2021/06/20 02:54:34;;;;;;;8.75;2.50;;;;;;;22.86;50.18;99500.34;5024050;28;20045;-76
2021/06/20 02:57:00;;;;;;;10.23;3.33;;;;;;;23.01;49.93;99491.06;5074248;28;20079;-80
2021/06/20 02:59:26;;;;;;;8.10;2.60;;;;;;;23.22;50.06;99505.66;5040470;28;20051;-79
2021/06/20 03:01:52;;;;;;;7.13;2.55;;;;;;;23.32;50.07;99500.72;5047584;28;20040;-85
2021/06/20 03:04:18;;;;;;;6.05;3.08;;;;;;;23.44;49.94;99499.09;5025886;28;20052;-81
2021/06/20 03:06:44;;;;;;;7.38;2.85;;;;;;;23.53;49.59;99499.75;5055736;28;20036;-78
2021/06/20 03:09:11;;;;;;;7.00;2.83;;;;;;;23.52;49.79;99512.56;5022453;28;20088;-80
2021/06/20 03:11:41;;;;;;;5.70;3.05;;;;;;;23.66;49.65;99498.97;5038834;28;20111;-77
2021/06/20 03:14:14;;;;;;;8.15;2.50;;;;;;;23.68;49.54;99488.72;5055368;28;20044;-76
2021/06/20 03:16:41;;;;;;;4.65;2.90;;;;;;;23.75;49.27;99495.03;5038913;28;20052;-79
2021/06/20 03:19:07;;;;;;;6.43;4.10;;;;;;;23.83;49.45;99500.31;5038965;28;20040;-78
2021/06/20 03:21:33;;;;;;;7.57;3.10;;;;;;;23.60;49.83;99497.88;5038451;28;20115;-77
2021/06/20 03:23:59;;;;;;;7.57;3.13;;;;;;;23.68;50.16;99502.38;5022580;28;20150;-84
2021/06/20 03:26:25;;;;;;;8.98;3.10;;;;;;;23.71;50.19;99491.03;5056193;28;20182;-80
2021/06/20 03:28:50;;;;;;;12.20;2.80;;;;;;;23.96;49.96;99497.66;5038611;28;20191;-77
2021/06/20 03:31:17;;;;;;;10.25;3.60;;;;;;;24.17;49.49;99490.31;5055149;28;20056;-79
2021/06/20 03:33:45;;;;;;;4.95;2.85;;;;;;;24.32;49.53;99493.72;5073030;28;20545;-76
2021/06/20 03:36:11;;;;;;;20.83;3.42;;;;;;;24.53;49.13;99500.94;5055205;28;20048;-77
2021/06/20 03:38:37;;;;;;;14.18;3.83;;;;;;;24.70;48.67;99488.50;5038544;28;20470;-77
2021/06/20 03:41:03;;;;;;;5.90;3.10;;;;;;;24.75;48.62;99484.28;5005194;28;20036;-79
2021/06/20 03:43:29;;;;;;;14.75;3.38;;;;;;;24.69;48.67;99486.00;5020565;28;20040;-78
2021/06/20 03:45:55;;;;;;;7.13;3.28;;;;;;;24.74;48.84;99491.66;5072637;28;20553;-77
2021/06/20 03:48:20;;;;;;;9.13;3.45;;;;;;;24.50;49.36;99481.38;5037907;28;20250;-77
2021/06/20 03:50:46;;;;;;;7.07;2.88;;;;;;;24.65;49.29;99473.81;5021328;28;20044;-83
2021/06/20 03:53:13;;;;;;;6.43;3.65;;;;;;;24.71;49.41;99472.94;5038528;28;20148;-77
2021/06/20 03:55:39;;;;;;;13.77;3.17;;;;;;;24.88;49.22;99476.94;5037835;28;20048;-77
2021/06/20 03:58:06;;;;;;;10.00;3.47;;;;;;;25.00;48.74;99484.47;5054975;28;20094;-78
2021/06/20 04:00:36;;;;;;;4.88;2.97;;;;;;;24.96;48.63;99471.22;5037879;28;20049;-79
2021/06/20 04:03:02;;;;;;;21.38;11.90;;;;;;;24.98;48.61;99495.66;5037730;28;20095;-77
2021/06/20 04:05:28;;;;;;;11.70;3.60;;;;;;;25.15;48.44;99474.19;5037760;28;20059;-77
2021/06/20 04:07:54;;;;;;;7.78;3.28;;;;;;;25.30;48.38;99482.97;5072047;28;20465;-77
2021/06/20 04:10:20;;;;;;;7.60;3.30;;;;;;;25.43;48.08;99482.09;5037501;28;20094;-84
2021/06/20 04:12:46;;;;;;;8.32;3.58;;;;;;;25.28;48.09;99479.63;5039109;28;20059;-82
2021/06/20 04:15:12;;;;;;;9.40;3.42;;;;;;;25.22;48.15;99469.53;5054257;28;20055;-79
2021/06/20 04:17:38;;;;;;;4.53;3.25;;;;;;;25.27;49.05;99486.13;5009227;28;20126;-79
2021/06/20 04:20:07;;;;;;;18.70;3.47;;;;;;;25.44;48.32;99481.88;5074688;28;20477;-78
2021/06/20 04:22:34;;;;;;;10.05;3.42;;;;;;;25.48;48.26;99470.50;5074960;28;20127;-80
2021/06/20 04:25:00;;;;;;;10.38;3.90;;;;;;;25.72;47.77;99480.72;5057119;28;20046;-78
2021/06/20 04:27:27;;;;;;;9.55;3.28;;;;;;;25.66;48.12;99487.06;5057907;28;20093;-79
2021/06/20 04:29:53;;;;;;;6.50;3.10;;;;;;;25.66;48.09;99476.97;5058171;28;20044;-80
2021/06/20 04:32:19;;;;;;;8.50;3.65;;;;;;;25.76;47.93;99497.53;5057808;28;20050;-78
2021/06/20 04:34:45;;;;;;;6.30;3.70;;;;;;;25.77;47.69;99489.13;5074372;28;20040;-79
2021/06/20 04:37:11;;;;;;;10.38;3.50;;;;;;;25.71;47.89;99489.97;5073857;28;20043;-78
2021/06/20 04:39:37;;;;;;;5.30;3.38;;;;;;;25.67;47.80;99478.63;5056971;28;20151;-77
2021/06/20 04:42:03;;;;;;;7.22;3.35;;;;;;;25.84;48.04;99492.72;5074247;28;20545;-76
2021/06/20 04:44:47;;;;;;;10.05;4.05;;;;;;;25.81;47.96;99487.66;5092365;28;20050;-80
2021/06/20 04:47:15;;;;;;;11.85;3.97;;;;;;;26.05;48.15;99482.47;5040909;28;20062;-79
2021/06/20 04:49:41;;;;;;;10.43;3.20;;;;;;;25.99;47.74;99486.06;5056954;28;20097;-76
2021/06/20 04:52:08;;;;;;;5.63;3.22;;;;;;;25.92;47.89;99503.41;5040569;28;20039;-75
2021/06/20 04:54:36;;;;;;;5.03;3.53;;;;;;;25.83;48.49;99492.91;5000704;28;20040;-78
2021/06/20 04:57:03;;;;;;;6.53;3.60;;;;;;;25.99;48.33;99497.91;5057766;28;20059;-83
2021/06/20 04:59:30;;;;;;;4.53;3.63;;;;;;;26.02;48.30;99493.84;5075876;28;20044;-82
2021/06/20 05:01:56;;;;;;;14.60;3.38;;;;;;;26.08;48.34;99502.03;5041464;28;20068;-85
2021/06/20 05:04:22;;;;;;;14.18;3.65;;;;;;;26.18;48.13;99479.66;5058023;28;20102;-87
2021/06/20 05:06:48;;;;;;;8.77;3.58;;;;;;;26.40;47.43;99477.38;5024620;28;20052;-88
2021/06/20 05:09:14;;;;;;;7.07;3.97;;;;;;;26.59;47.39;99492.88;5024284;28;20132;-83
2021/06/20 05:11:39;;;;;;;9.80;3.90;;;;;;;26.58;47.59;99495.84;5075226;28;20071;-79
2021/06/20 05:14:05;;;;;;;6.43;3.72;;;;;;;26.63;47.33;99496.03;5041269;28;20122;-85
2021/06/20 05:16:31;;;;;;;6.82;3.95;;;;;;;26.75;47.03;99496.97;5024384;28;20418;-80
2021/06/20 05:18:57;;;;;;;9.88;3.63;;;;;;;26.72;47.33;99483.69;5040588;28;20578;-79
2021/06/20 05:21:23;;;;;;;10.38;3.28;;;;;;;26.85;47.37;99497.31;5074277;28;20551;-82
2021/06/20 05:23:49;;;;;;;5.35;3.67;;;;;;;26.87;46.75;99486.94;5040792;28;20380;-80
2021/06/20 05:26:16;;;;;;;6.93;3.40;;;;;;;26.85;46.73;99497.31;5042391;28;20104;-81
2021/06/20 05:28:41;;;;;;;10.60;4.13;;;;;;;26.68;46.76;99479.72;5009934;28;20102;-79
2021/06/20 05:31:07;;;;;;;5.93;3.28;;;;;;;26.94;46.82;99500.59;5041466;28;20581;-80
2021/06/20 05:33:33;;;;;;;9.88;3.85;;;;;;;27.25;46.28;99491.44;5057469;28;20135;-83
2021/06/20 05:35:59;;;;;;;15.30;3.90;;;;;;;27.64;45.55;99500.28;5058086;28;20090;-85
2021/06/20 05:38:25;;;;;;;7.18;3.47;;;;;;;27.79;45.63;99498.00;5027728;28;20117;-82
2021/06/20 05:40:51;;;;;;;8.48;3.70;;;;;;;27.98;44.56;99506.22;5059186;28;20057;-79
2021/06/20 05:43:17;;;;;;;5.47;3.53;;;;;;;27.96;44.96;99511.13;5042397;28;20071;-90
2021/06/20 05:45:43;;;;;;;8.75;3.47;;;;;;;28.18;44.81;99517.78;5042299;28;20108;-81
2021/06/20 05:48:08;;;;;;;14.25;3.78;;;;;;;28.33;44.25;99512.69;5010299;28;20154;-81
2021/06/20 05:50:34;;;;;;;12.10;3.80;;;;;;;28.17;44.41;99505.13;5058026;28;20052;-85
2021/06/20 05:53:00;;;;;;;7.40;3.90;;;;;;;28.20;44.44;99501.88;5056695;28;20565;-84
2021/06/20 05:55:26;;;;;;;7.30;3.35;;;;;;;28.29;44.31;99505.16;5007199;28;20036;-88
2021/06/20 05:57:52;;;;;;;7.82;3.80;;;;;;;28.19;44.36;99502.97;5056702;28;20036;-86
2021/06/20 06:00:19;;;;;;;8.00;3.80;;;;;;;28.29;44.43;99508.72;5039908;28;20040;-84
2021/06/20 06:02:45;;;;;;;6.20;3.63;;;;;;;28.38;44.41;99505.69;5039869;28;20059;-87
2021/06/20 06:05:11;;;;;;;13.60;3.67;;;;;;;28.37;44.52;99498.47;5055890;28;20056;-84
2021/06/20 06:07:37;;;;;;;8.82;4.40;;;;;;;28.39;44.60;99510.94;5039880;28;20044;-81
2021/06/20 06:10:04;;;;;;;8.60;3.72;;;;;;;28.19;45.15;99513.94;5040474;28;20067;-85
2021/06/20 06:12:30;;;;;;;8.35;3.35;;;;;;;28.12;44.65;99506.88;5041905;28;20075;-84
2021/06/20 06:14:56;;;;;;;4.82;3.80;;;;;;;28.36;44.88;99516.03;5077669;28;20097;-83
2021/06/20 06:17:22;;;;;;;7.40;3.80;;;;;;;28.30;44.91;99510.41;5041966;28;20094;-82
2021/06/20 06:19:48;;;;;;;8.30;4.00;;;;;;;28.33;44.66;99531.09;5042876;28;20105;-84
2021/06/20 06:22:16;;;;;;;6.65;3.83;;;;;;;28.11;45.16;99528.03;5058383;28;20049;-81
2021/06/20 06:24:43;;;;;;;9.95;3.83;;;;;;;28.06;45.61;99503.16;5025223;28;20402;-81
2021/06/20 06:27:09;;;;;;;10.45;4.28;;;;;;;28.31;45.40;99517.56;5023147;28;20505;-84
2021/06/20 06:29:35;;;;;;;9.35;4.00;;;;;;;28.52;44.96;99523.66;5072467;28;20114;-79
2021/06/20 06:32:01;;;;;;;7.10;3.88;;;;;;;28.40;44.93;99514.50;5022532;28;20048;-81
2021/06/20 06:34:28;;;;;;;7.32;3.95;;;;;;;28.59;44.62;99493.31;5039625;28;20483;-80
2021/06/20 06:36:54;;;;;;;10.60;4.18;;;;;;;28.95;44.34;99497.75;5072800;28;20112;-82
2021/06/20 06:39:20;;;;;;;6.90;3.85;;;;;;;29.53;43.41;99497.72;5038875;28;20048;-88
2021/06/20 06:41:46;;;;;;;9.18;4.28;;;;;;;29.40;43.44;99502.66;5038922;28;20042;-86
2021/06/20 06:44:12;;;;;;;6.72;4.28;;;;;;;29.31;43.99;99493.09;5073384;28;20048;-79
2021/06/20 06:46:39;;;;;;;8.73;3.65;;;;;;;29.63;43.72;99494.38;5038594;28;20076;-79
2021/06/20 06:49:04;;;;;;;11.80;3.92;;;;;;;29.58;43.36;99488.75;5055060;28;20068;-78
2021/06/20 06:51:30;;;;;;;19.40;4.20;;;;;;;29.93;43.02;99482.28;5039324;28;20078;-78
2021/06/20 06:53:56;;;;;;;24.13;4.00;;;;;;;30.31;42.22;99492.69;5054716;28;20127;-79
2021/06/20 06:56:22;;;;;;;6.43;3.78;;;;;;;30.42;41.82;99489.03;5022551;28;20048;-79
2021/06/20 06:58:48;;;;;;;14.55;4.13;;;;;;;30.15;41.94;99488.78;5072751;28;20068;-86
2021/06/20 07:01:14;;;;;;;11.20;4.68;;;;;;;30.01;42.33;99476.38;5038780;28;20051;-84
2021/06/20 07:03:41;;;;;;;8.13;4.30;;;;;;;29.71;42.47;99488.50;5038767;28;20040;-80
2021/06/20 07:06:25;;;;;;;9.88;4.50;;;;;;;29.74;42.41;99485.22;5027194;28;20127;-79
2021/06/20 07:08:51;;;;;;;9.52;4.43;;;;;;;29.84;41.57;99479.09;5072322;28;20487;-79
2021/06/20 07:11:17;;;;;;;7.07;4.20;;;;;;;29.68;41.80;99491.75;5038739;28;20052;-80
2021/06/20 07:13:43;;;;;;;9.57;4.70;;;;;;;29.46;42.23;99471.41;5054910;28;20414;-79
2021/06/20 07:16:09;;;;;;;7.47;4.88;;;;;;;29.31;41.76;99482.09;5038595;28;20032;-78
2021/06/20 07:18:35;;;;;;;11.27;5.55;;;;;;;29.41;41.77;99482.28;5054753;28;20055;-78
2021/06/20 07:21:02;;;;;;;10.02;4.70;;;;;;;29.43;42.30;99492.00;5021538;28;20044;-80
2021/06/20 07:23:28;;;;;;;10.90;4.60;;;;;;;29.17;42.37;99501.59;5037653;28;20052;-79
2021/06/20 07:25:54;;;;;;;11.45;5.07;;;;;;;29.25;42.30;99487.47;5037999;28;20093;-89
2021/06/20 07:28:20;;;;;;;10.15;4.30;;;;;;;29.20;41.94;99489.28;5054597;28;20036;-86
2021/06/20 07:30:49;;;;;;;9.38;3.80;;;;;;;29.24;41.37;99510.56;5054552;28;20047;-87
2021/06/20 07:33:19;;;;;;;8.73;4.20;;;;;;;28.94;41.30;99482.31;5038654;28;20060;-78
2021/06/20 07:35:48;;;;;;;11.65;4.15;;;;;;;28.92;42.25;99492.72;5038181;28;20048;-81
2021/06/20 07:38:15;;;;;;;12.45;4.10;;;;;;;29.02;42.32;99515.84;5022382;28;20079;-79
2021/06/20 07:40:41;;;;;;;9.75;4.38;;;;;;;29.02;41.90;99496.56;5072302;28;20076;-80
2021/06/20 07:43:07;;;;;;;5.78;4.50;;;;;;;29.14;42.30;99488.31;5004968;28;20051;-78
2021/06/20 07:45:33;;;;;;;17.10;4.80;;;;;;;29.26;41.59;99502.06;5005094;28;20478;-78
2021/06/20 07:48:00;;;;;;;11.40;4.55;;;;;;;29.13;41.73;99488.56;5021497;28;20086;-83
2021/06/20 07:50:26;;;;;;;13.15;4.28;;;;;;;29.14;41.72;99507.59;5038368;28;20044;-81
2021/06/20 07:52:51;;;;;;;12.93;4.80;;;;;;;28.98;41.70;99483.53;5056022;28;20434;-79
2021/06/20 07:55:18;;;;;;;19.60;4.93;;;;;;;28.89;42.12;99498.72;5038829;28;20052;-82
2021/06/20 07:57:44;;;;;;;9.02;4.45;;;;;;;28.94;41.82;99487.81;5039886;28;20045;-83
2021/06/20 08:00:10;;;;;;;7.32;4.47;;;;;;;29.03;42.30;99486.41;5007236;28;20051;-83
2021/06/20 08:02:42;;;;;;;16.73;4.63;;;;;;;29.13;41.61;99494.91;5041414;28;20123;-81
2021/06/20 08:05:09;;;;;;;7.63;3.90;;;;;;;29.26;41.67;99477.28;5055929;28;20147;-81
2021/06/20 08:07:35;;;;;;;5.90;3.83;;;;;;;29.55;40.81;99467.19;5040197;28;20541;-81
2021/06/20 08:10:01;;;;;;;9.82;4.43;;;;;;;29.64;40.33;99462.16;5023754;28;20052;-82
2021/06/20 08:12:28;;;;;;;10.68;4.50;;;;;;;29.79;40.83;99470.75;5014500;28;20044;-79
2021/06/20 08:14:54;;;;;;;10.98;4.18;;;;;;;30.03;40.14;99471.47;5042198;28;20050;-79
2021/06/20 08:17:28;;;;;;;11.07;4.20;;;;;;;30.21;39.74;99476.81;5061091;28;20103;-82
2021/06/20 08:19:55;;;;;;;8.52;4.65;;;;;;;30.23;39.84;99480.13;5027119;28;20146;-79
2021/06/20 08:22:21;;;;;;;10.50;4.18;;;;;;;30.17;39.39;99481.16;5044109;28;20084;-80
2021/06/20 08:24:47;;;;;;;12.00;4.32;;;;;;;29.90;40.36;99482.78;5025378;28;20044;-82
2021/06/20 08:27:13;;;;;;;8.65;4.25;;;;;;;29.92;40.23;99486.16;5043094;28;20040;-79
2021/06/20 08:29:39;;;;;;;9.15;4.40;;;;;;;30.05;40.29;99473.97;5062853;28;20047;-79
2021/06/20 08:32:08;;;;;;;6.00;4.15;;;;;;;29.88;40.38;99460.16;5064894;28;20047;-80
2021/06/20 08:34:35;;;;;;;;;;;;;;;29.98;40.48;99471.38;5069585;28;20499;-82
2021/06/20 08:37:02;;;;;;;9.63;4.20;;;;;;;30.08;40.34;99482.59;5053831;28;19915;-81
2021/06/20 08:39:30;;;;;;;11.73;4.32;;;;;;;29.82;40.92;99483.19;5035280;28;20047;-80
2021/06/20 08:41:57;;;;;;;8.52;4.03;;;;;;;29.96;40.62;99468.88;5062718;28;20105;-81
2021/06/20 08:44:30;;;;;;;10.90;4.43;;;;;;;29.81;40.59;99468.56;5046317;28;20059;-77
2021/06/20 08:46:57;;;;;;;12.52;4.88;;;;;;;29.57;41.17;99470.53;5030394;28;20047;-81
2021/06/20 08:49:23;;;;;;;8.95;4.18;;;;;;;29.47;41.48;99460.13;5062268;28;20050;-81
2021/06/20 08:51:51;;;;;;;10.07;4.95;;;;;;;29.82;40.91;99466.66;5030485;28;20036;-80
2021/06/20 08:54:17;;;;;;;9.90;4.47;;;;;;;30.33;39.84;99471.22;5030850;28;20498;-80
2021/06/20 08:56:44;;;;;;;10.82;4.35;;;;;;;30.33;39.50;99497.97;5062208;28;20051;-82
2021/06/20 08:59:12;;;;;;;12.90;4.50;;;;;;;30.32;38.94;99460.47;5030417;28;20044;-80
2021/06/20 09:01:37;;;;;;;13.20;4.50;;;;;;;30.49;38.46;99448.31;5046115;28;20043;-79
2021/06/20 09:04:04;;;;;;;8.73;3.90;;;;;;;30.47;38.28;99452.44;5044750;28;20063;-80
2021/06/20 09:06:30;;;;;;;8.00;4.15;;;;;;;30.44;38.65;99447.44;5017333;28;20043;-82
2021/06/20 09:08:58;;;;;;;13.85;4.40;;;;;;;30.79;38.64;99454.63;5024333;28;20040;-80
2021/06/20 09:11:32;;;;;;;9.57;4.23;;;;;;;30.96;38.98;99449.94;5042026;28;20044;-81
2021/06/20 09:14:11;;;;;;;15.13;4.43;;;;;;;30.94;38.21;99443.81;5025751;28;20319;-80
2021/06/20 09:16:52;;;;;;;7.82;3.92;;;;;;;31.03;38.31;99469.91;5046545;28;20078;-79
2021/06/20 09:19:29;;;;;;;8.77;4.53;;;;;;;31.01;38.07;99463.81;5045568;28;20070;-78
2021/06/20 09:21:55;;;;;;;13.40;4.32;;;;;;;31.23;37.93;99454.72;5044569;28;20055;-79
2021/06/20 09:24:22;;;;;;;10.25;4.40;;;;;;;31.60;37.41;99446.69;5044433;28;20076;-79
2021/06/20 09:26:52;;;;;;;18.15;4.03;;;;;;;31.45;37.40;99455.59;5027324;28;20051;-80
2021/06/20 09:29:47;;;;;;;12.25;4.47;;;;;;;31.38;37.06;99438.38;5060595;28;20043;-80
2021/06/20 09:32:13;;;;;;;5.43;4.00;;;;;;;31.67;37.23;99461.13;5060197;28;20134;-80
2021/06/20 09:34:47;;;;;;;9.52;4.13;;;;;;;31.78;36.62;99445.47;5060415;28;20132;-80
2021/06/20 09:37:13;;;;;;;10.68;4.57;;;;;;;31.50;36.65;99444.63;5060940;28;20490;-80
2021/06/20 09:39:39;;;;;;;13.32;4.55;;;;;;;31.32;37.22;99454.03;5060398;28;20127;-80
2021/06/20 09:42:14;;;;;;;8.18;4.63;;;;;;;31.49;37.04;99453.16;5027859;28;20051;-81
2021/06/20 09:44:42;;;;;;;11.30;4.35;;;;;;;31.66;36.87;99446.47;5060760;28;20036;-80
2021/06/20 09:47:28;;;;;;;8.40;4.53;;;;;;;31.60;37.15;99469.63;5066365;28;20071;-79
2021/06/20 09:49:55;;;;;;;13.23;5.15;;;;;;;31.50;37.22;99433.56;5027334;28;20421;-78
2021/06/20 09:52:29;;;;;;;8.67;4.00;;;;;;;31.74;36.34;99444.34;5030226;28;20044;-79
2021/06/20 09:54:56;;;;;;;8.43;3.90;;;;;;;31.75;35.89;99440.50;5009100;28;20121;-78
2021/06/20 09:57:22;;;;;;;6.05;3.55;;;;;;;31.77;35.39;99432.75;5008120;28;20383;-80
2021/06/20 10:00:01;;;;;;;8.98;4.00;;;;;;;31.89;33.78;99442.59;5024164;28;20129;-80
2021/06/20 10:02:41;;;;;;;10.13;3.55;;;;;;;32.20;33.63;99436.53;5013890;28;20036;-79
2021/06/20 10:05:08;;;;;;;10.25;3.47;;;;;;;32.08;33.24;99440.34;5024594;28;20056;-80
2021/06/20 10:07:34;;;;;;;11.75;3.80;;;;;;;32.09;32.87;99439.22;4991444;28;20058;-78
2021/06/20 10:10:05;;;;;;;15.82;3.50;;;;;;;32.53;33.41;99424.41;4992978;28;20076;-81
2021/06/20 10:12:32;;;;;;;5.78;3.45;;;;;;;32.82;32.77;99434.03;5026051;28;20044;-79
2021/06/20 10:15:05;;;;;;;9.15;3.85;;;;;;;32.59;32.25;99426.13;5040711;28;20472;-81
2021/06/20 10:17:36;;;;;;;13.85;3.55;;;;;;;32.67;32.29;99430.34;5024972;28;20044;-77
2021/06/20 10:20:07;;;;;;;5.55;3.47;;;;;;;32.59;32.12;99431.66;5040794;28;20047;-81
2021/06/20 10:22:41;;;;;;;11.45;3.40;;;;;;;32.40;32.55;99453.38;5040036;28;20521;-79
2021/06/20 10:25:08;;;;;;;19.60;3.90;;;;;;;32.63;32.68;99414.25;5024333;28;20041;-77
2021/06/20 10:27:38;;;;;;;19.00;3.58;;;;;;;32.54;32.65;99418.63;5039750;28;20049;-78
2021/06/20 10:30:34;;;;;;;6.15;3.50;;;;;;;32.40;33.15;99469.97;5040909;28;20044;-78
2021/06/20 10:33:13;;;;;;;10.48;3.40;;;;;;;32.00;32.67;99443.53;5046572;28;20079;-79
2021/06/20 10:35:42;;;;;;;8.82;3.00;;;;;;;32.51;32.04;99437.69;5026483;28;20123;-80
2021/06/20 10:38:08;;;;;;;16.58;3.20;;;;;;;33.26;30.81;99416.34;5024457;28;20040;-81
2021/06/20 10:40:42;;;;;;;7.03;2.80;;;;;;;33.39;30.07;99421.38;5009605;28;20044;-80
2021/06/20 10:43:21;;;;;;;6.93;2.92;;;;;;;33.84;29.78;99417.09;5091692;28;20394;-79
2021/06/20 10:45:47;;;;;;;6.32;2.92;;;;;;;34.03;28.94;99425.78;5059529;28;20068;-80
2021/06/20 10:48:33;;;;;;;15.60;2.80;;;;;;;33.57;29.39;99409.81;5058848;28;20121;-80
2021/06/20 10:50:59;;;;;;;11.93;2.97;;;;;;;33.35;29.93;99414.69;5025885;28;20066;-79
2021/06/20 10:53:26;;;;;;;6.47;2.95;;;;;;;33.45;29.86;99420.28;5050133;28;20040;-81
2021/06/20 10:55:55;;;;;;;5.55;2.60;;;;;;;34.33;29.07;99420.25;5066645;28;20036;-80
2021/06/20 10:58:28;;;;;;;12.77;2.95;;;;;;;34.24;28.66;99429.41;5074906;28;20055;-79
2021/06/20 11:01:14;;;;;;;8.30;2.60;;;;;;;34.57;28.29;99414.19;5093207;28;20495;-80
2021/06/20 11:04:03;;;;;;;10.10;3.00;;;;;;;34.53;28.14;99436.13;5055987;28;20399;-79
2021/06/20 11:06:29;;;;;;;13.57;2.90;;;;;;;34.29;28.85;99446.06;5064169;28;20048;-78
2021/06/20 11:08:58;;;;;;;9.10;3.10;;;;;;;34.42;28.81;99409.44;5052452;28;20044;-79
2021/06/20 11:11:27;;;;;;;7.38;2.65;;;;;;;34.97;27.56;99418.81;5058209;28;20444;-79
2021/06/20 11:13:57;;;;;;;9.23;2.60;;;;;;;34.89;27.70;99433.28;5072826;28;20437;-79
2021/06/20 11:16:46;;;;;;;5.78;2.50;;;;;;;34.81;27.91;99408.88;5074471;28;20135;-79
2021/06/20 11:19:13;;;;;;;7.60;2.78;;;;;;;35.22;27.15;99412.41;5042599;28;20105;-80
2021/06/20 11:21:59;;;;;;;5.15;2.85;;;;;;;35.79;26.85;99412.16;5057670;28;20461;-79
2021/06/20 11:24:51;;;;;;;11.73;2.88;;;;;;;36.21;26.45;99418.00;5058749;28;20048;-83
2021/06/20 11:27:21;;;;;;;8.85;3.10;;;;;;;35.54;27.28;99427.03;5068836;28;20426;-77
2021/06/20 11:29:52;;;;;;;8.38;2.90;;;;;;;34.13;28.75;99408.31;5063979;28;20376;-77
2021/06/20 11:32:25;;;;;;;11.25;2.70;;;;;;;35.22;27.71;99431.84;5038633;28;20044;-79
2021/06/20 11:34:55;;;;;;;15.80;3.25;;;;;;;35.49;26.85;99427.84;5041782;28;20040;-78